Date,TemperatureHighF,TemperatureAvgF,TemperatureLowF,DewpointHighF,DewpointAvgF,DewpointLowF,HumidityHigh,HumidityAvg,HumidityLow,PressureMaxIn,PressureMinIn,WindSpeedMaxMPH,WindSpeedAvgMPH,GustSpeedMaxMPH,PrecipitationSumIn
2013-6-1,85,74,68,73,70,65,98,88,65,29.85,29.65,9,2,0,0.41
2013-6-2,83,73,65,70,66,61,98,80,50,29.81,29.74,5,2,0,0.00
2013-6-3,87,71,59,66,61,57,95,73,39,29.86,29.75,8,2,0,0.00
2013-6-4,88,74,58,66,62,55,93,70,45,29.85,29.74,5,1,0,0.00
2013-6-5,91,77,66,75,69,63,91,78,54,29.79,29.63,5,1,0,0.40
2013-6-6,85,76,68,71,67,65,91,76,55,29.69,29.58,6,2,0,0.01
2013-6-7,85,74,61,66,62,56,92,68,38,29.73,29.61,5,2,0,0.00
2013-6-8,89,73,56,65,58,53,94,64,30,29.82,29.72,3,1,0,0.00
2013-6-9,92,74,61,72,66,58,94,77,48,29.82,29.62,7,2,0,0.55
2013-6-10,97,81,68,74,68,61,95,70,31,29.77,29.69,9,2,0,0.01
2013-6-11,99,86,71,74,70,66,92,64,38,29.87,29.76,5,2,0,0.00
2013-6-12,98,86,70,76,73,68,95,68,44,29.89,29.73,7,2,0,0.00
2013-6-13,97,84,70,76,70,64,84,65,40,29.79,29.71,7,3,0,0.00
2013-6-14,90,77,64,66,62,58,97,64,37,29.88,29.77,7,2,0,0.00
2013-6-15,95,78,61,68,64,57,95,66,35,29.90,29.79,4,1,0,0.00
2013-6-16,91,78,68,74,69,65,93,75,51,29.87,29.77,6,1,0,0.00
2013-6-17,87,77,71,74,71,69,98,84,61,29.83,29.67,7,1,0,1.30
2013-6-18,86,75,69,72,70,68,99,85,57,29.81,29.66,5,1,0,0.04
2013-6-19,92,77,65,75,69,61,95,78,43,29.89,29.78,9,1,0,1.23
2013-6-20,98,82,70,77,70,65,94,70,36,29.97,29.87,4,1,0,0.01
2013-6-21,96,81,68,74,70,65,93,71,41,30.01,29.90,5,1,0,0.00
2013-6-22,93,81,68,73,70,65,94,71,44,29.98,29.84,4,1,0,0.00
2013-6-23,96,82,68,72,69,66,94,69,40,29.94,29.83,4,1,0,0.00
2013-6-24,96,85,71,75,72,69,94,68,46,29.97,29.83,5,1,0,0.00
2013-6-25,93,84,73,75,72,67,93,69,46,29.93,29.77,7,2,0,0.00
2013-6-26,95,85,73,75,71,65,92,66,40,29.84,29.68,9,3,0,0.00
2013-6-27,100,88,76,79,74,68,82,65,46,29.76,29.65,5,2,0,0.00
2013-6-28,96,79,72,76,72,68,99,81,46,29.75,29.53,8,1,0,1.00
2013-6-29,92,79,65,70,65,57,96,65,32,29.59,29.51,8,2,0,0.00
2013-6-30,83,73,64,67,65,62,96,76,55,29.66,29.54,6,2,0,0.00